sensor_id;sensor_type;location;lat;lon;timestamp;P1;durP1;ratioP1;P2;durP2;ratioP2
70312;SDS011;57723;51.698;5.344;2023-04-12T00:00:47;2.57;;;0.40;;
70312;SDS011;57723;51.698;5.344;2023-04-12T00:03:14;0.73;;;0.40;;
70312;SDS011;57723;51.698;5.344;2023-04-12T00:05:44;0.47;;;0.40;;
70312;SDS011;57723;51.698;5.344;2023-04-12T00:08:11;2.15;;;0.50;;
70312;SDS011;57723;51.698;5.344;2023-04-12T00:10:36;1.00;;;0.40;;
70312;SDS011;57723;51.698;5.344;2023-04-12T00:13:01;1.17;;;0.33;;
70312;SDS011;57723;51.698;5.344;2023-04-12T00:15:26;1.20;;;0.40;;
70312;SDS011;57723;51.698;5.344;2023-04-12T00:17:52;4.90;;;0.50;;
70312;SDS011;57723;51.698;5.344;2023-04-12T00:20:17;0.93;;;0.30;;
70312;SDS011;57723;51.698;5.344;2023-04-12T00:22:42;0.77;;;0.40;;
70312;SDS011;57723;51.698;5.344;2023-04-12T00:25:07;0.87;;;0.50;;
70312;SDS011;57723;51.698;5.344;2023-04-12T00:27:33;0.85;;;0.50;;
70312;SDS011;57723;51.698;5.344;2023-04-12T00:29:58;2.93;;;0.50;;
70312;SDS011;57723;51.698;5.344;2023-04-12T00:32:23;0.60;;;0.40;;
70312;SDS011;57723;51.698;5.344;2023-04-12T00:34:49;1.10;;;0.50;;
70312;SDS011;57723;51.698;5.344;2023-04-12T00:37:14;1.00;;;0.40;;
70312;SDS011;57723;51.698;5.344;2023-04-12T00:39:39;1.70;;;0.40;;
70312;SDS011;57723;51.698;5.344;2023-04-12T00:42:05;3.40;;;0.60;;
70312;SDS011;57723;51.698;5.344;2023-04-12T00:44:31;0.90;;;0.50;;
70312;SDS011;57723;51.698;5.344;2023-04-12T00:46:57;2.80;;;0.47;;
70312;SDS011;57723;51.698;5.344;2023-04-12T00:49:22;1.63;;;0.60;;
70312;SDS011;57723;51.698;5.344;2023-04-12T00:51:48;0.82;;;0.77;;
70312;SDS011;57723;51.698;5.344;2023-04-12T00:54:13;0.40;;;0.40;;
70312;SDS011;57723;51.698;5.344;2023-04-12T00:56:42;0.50;;;0.50;;
70312;SDS011;57723;51.698;5.344;2023-04-12T00:59:08;2.40;;;0.55;;
70312;SDS011;57723;51.698;5.344;2023-04-12T01:01:34;0.43;;;0.37;;
70312;SDS011;57723;51.698;5.344;2023-04-12T01:03:59;0.50;;;0.30;;
70312;SDS011;57723;51.698;5.344;2023-04-12T01:11:27;1.52;;;0.40;;
70312;SDS011;57723;51.698;5.344;2023-04-12T01:16:40;1.38;;;0.40;;
70312;SDS011;57723;51.698;5.344;2023-04-12T01:19:18;1.00;;;0.40;;
70312;SDS011;57723;51.698;5.344;2023-04-12T01:22:28;0.35;;;0.30;;
70312;SDS011;57723;51.698;5.344;2023-04-12T01:27:33;0.82;;;0.65;;
70312;SDS011;57723;51.698;5.344;2023-04-12T01:30:01;0.85;;;0.40;;
70312;SDS011;57723;51.698;5.344;2023-04-12T01:32:27;1.07;;;0.37;;
70312;SDS011;57723;51.698;5.344;2023-04-12T01:34:53;0.60;;;0.30;;
70312;SDS011;57723;51.698;5.344;2023-04-12T01:37:18;0.40;;;0.40;;
70312;SDS011;57723;51.698;5.344;2023-04-12T01:39:45;1.10;;;0.40;;
70312;SDS011;57723;51.698;5.344;2023-04-12T01:42:10;1.33;;;0.40;;
70312;SDS011;57723;51.698;5.344;2023-04-12T01:44:35;0.60;;;0.40;;
70312;SDS011;57723;51.698;5.344;2023-04-12T01:47:01;0.60;;;0.30;;
70312;SDS011;57723;51.698;5.344;2023-04-12T01:49:27;1.10;;;0.40;;
70312;SDS011;57723;51.698;5.344;2023-04-12T01:52:02;1.45;;;0.47;;
70312;SDS011;57723;51.698;5.344;2023-04-12T01:54:32;3.40;;;0.50;;
70312;SDS011;57723;51.698;5.344;2023-04-12T01:57:01;0.80;;;0.43;;
70312;SDS011;57723;51.698;5.344;2023-04-12T01:59:30;2.85;;;0.40;;
70312;SDS011;57723;51.698;5.344;2023-04-12T02:01:56;0.43;;;0.30;;
70312;SDS011;57723;51.698;5.344;2023-04-12T02:04:22;0.52;;;0.30;;
70312;SDS011;57723;51.698;5.344;2023-04-12T02:06:51;0.20;;;0.20;;
70312;SDS011;57723;51.698;5.344;2023-04-12T02:09:16;2.00;;;0.40;;
70312;SDS011;57723;51.698;5.344;2023-04-12T02:11:45;2.00;;;0.50;;
70312;SDS011;57723;51.698;5.344;2023-04-12T02:14:10;2.75;;;0.50;;
70312;SDS011;57723;51.698;5.344;2023-04-12T02:16:35;0.37;;;0.37;;
70312;SDS011;57723;51.698;5.344;2023-04-12T02:19:01;0.53;;;0.30;;
70312;SDS011;57723;51.698;5.344;2023-04-12T02:21:26;0.90;;;0.40;;
70312;SDS011;57723;51.698;5.344;2023-04-12T02:23:51;0.80;;;0.40;;
70312;SDS011;57723;51.698;5.344;2023-04-12T02:26:16;1.07;;;0.40;;
70312;SDS011;57723;51.698;5.344;2023-04-12T02:28:43;0.53;;;0.30;;
70312;SDS011;57723;51.698;5.344;2023-04-12T02:31:08;0.65;;;0.38;;
70312;SDS011;57723;51.698;5.344;2023-04-12T02:33:33;3.77;;;0.50;;
70312;SDS011;57723;51.698;5.344;2023-04-12T02:35:59;0.37;;;0.33;;
70312;SDS011;57723;51.698;5.344;2023-04-12T02:38:26;0.57;;;0.35;;
70312;SDS011;57723;51.698;5.344;2023-04-12T02:40:52;0.57;;;0.30;;
70312;SDS011;57723;51.698;5.344;2023-04-12T02:43:17;3.03;;;0.40;;
70312;SDS011;57723;51.698;5.344;2023-04-12T02:45:43;0.80;;;0.30;;
70312;SDS011;57723;51.698;5.344;2023-04-12T02:48:08;0.40;;;0.33;;
70312;SDS011;57723;51.698;5.344;2023-04-12T02:50:33;0.40;;;0.40;;
70312;SDS011;57723;51.698;5.344;2023-04-12T02:52:58;1.50;;;0.50;;
70312;SDS011;57723;51.698;5.344;2023-04-12T02:55:24;2.10;;;0.40;;
70312;SDS011;57723;51.698;5.344;2023-04-12T02:57:49;1.67;;;0.40;;
70312;SDS011;57723;51.698;5.344;2023-04-12T03:00:15;0.90;;;0.33;;
70312;SDS011;57723;51.698;5.344;2023-04-12T03:02:41;0.70;;;0.40;;
70312;SDS011;57723;51.698;5.344;2023-04-12T03:05:06;5.05;;;0.47;;
70312;SDS011;57723;51.698;5.344;2023-04-12T03:07:32;1.40;;;0.50;;
70312;SDS011;57723;51.698;5.344;2023-04-12T03:09:57;1.43;;;0.40;;
70312;SDS011;57723;51.698;5.344;2023-04-12T03:12:23;1.30;;;0.40;;
70312;SDS011;57723;51.698;5.344;2023-04-12T03:14:48;1.90;;;0.40;;
70312;SDS011;57723;51.698;5.344;2023-04-12T03:17:13;1.97;;;0.47;;
70312;SDS011;57723;51.698;5.344;2023-04-12T03:19:39;0.30;;;0.30;;
70312;SDS011;57723;51.698;5.344;2023-04-12T03:22:04;3.17;;;0.40;;
70312;SDS011;57723;51.698;5.344;2023-04-12T03:24:30;0.63;;;0.30;;
70312;SDS011;57723;51.698;5.344;2023-04-12T03:26:59;0.30;;;0.30;;
70312;SDS011;57723;51.698;5.344;2023-04-12T03:29:26;0.40;;;0.40;;
70312;SDS011;57723;51.698;5.344;2023-04-12T03:31:51;0.67;;;0.30;;
70312;SDS011;57723;51.698;5.344;2023-04-12T03:34:16;0.30;;;0.30;;
70312;SDS011;57723;51.698;5.344;2023-04-12T03:36:41;2.43;;;0.30;;
70312;SDS011;57723;51.698;5.344;2023-04-12T03:39:06;3.17;;;0.37;;
70312;SDS011;57723;51.698;5.344;2023-04-12T03:41:32;1.23;;;0.40;;
70312;SDS011;57723;51.698;5.344;2023-04-12T03:43:57;1.58;;;0.30;;
70312;SDS011;57723;51.698;5.344;2023-04-12T03:46:22;0.47;;;0.40;;
70312;SDS011;57723;51.698;5.344;2023-04-12T03:48:48;0.60;;;0.30;;
70312;SDS011;57723;51.698;5.344;2023-04-12T03:51:13;0.70;;;0.30;;
70312;SDS011;57723;51.698;5.344;2023-04-12T03:53:39;1.73;;;0.40;;
70312;SDS011;57723;51.698;5.344;2023-04-12T03:56:05;0.80;;;0.40;;
70312;SDS011;57723;51.698;5.344;2023-04-12T03:58:30;0.87;;;0.40;;
70312;SDS011;57723;51.698;5.344;2023-04-12T04:00:58;1.25;;;0.30;;
70312;SDS011;57723;51.698;5.344;2023-04-12T04:03:25;0.65;;;0.30;;
70312;SDS011;57723;51.698;5.344;2023-04-12T04:05:53;1.52;;;0.30;;
70312;SDS011;57723;51.698;5.344;2023-04-12T04:08:19;5.73;;;0.30;;
70312;SDS011;57723;51.698;5.344;2023-04-12T04:10:44;0.90;;;0.50;;
70312;SDS011;57723;51.698;5.344;2023-04-12T04:13:10;2.00;;;0.40;;
70312;SDS011;57723;51.698;5.344;2023-04-12T04:15:35;2.80;;;0.90;;
70312;SDS011;57723;51.698;5.344;2023-04-12T04:18:00;1.00;;;0.33;;
70312;SDS011;57723;51.698;5.344;2023-04-12T04:20:26;0.60;;;0.30;;
70312;SDS011;57723;51.698;5.344;2023-04-12T04:22:51;1.00;;;0.37;;
70312;SDS011;57723;51.698;5.344;2023-04-12T04:25:17;4.18;;;0.50;;
70312;SDS011;57723;51.698;5.344;2023-04-12T04:27:43;2.17;;;0.40;;
70312;SDS011;57723;51.698;5.344;2023-04-12T04:30:10;1.47;;;0.30;;
70312;SDS011;57723;51.698;5.344;2023-04-12T04:32:36;0.65;;;0.30;;
70312;SDS011;57723;51.698;5.344;2023-04-12T04:35:01;0.55;;;0.30;;
70312;SDS011;57723;51.698;5.344;2023-04-12T04:37:27;2.63;;;0.40;;
70312;SDS011;57723;51.698;5.344;2023-04-12T04:39:54;1.13;;;0.60;;
70312;SDS011;57723;51.698;5.344;2023-04-12T04:42:20;0.63;;;0.38;;
70312;SDS011;57723;51.698;5.344;2023-04-12T04:44:45;1.37;;;0.30;;
70312;SDS011;57723;51.698;5.344;2023-04-12T04:47:11;1.25;;;0.32;;
70312;SDS011;57723;51.698;5.344;2023-04-12T04:49:36;0.30;;;0.30;;
70312;SDS011;57723;51.698;5.344;2023-04-12T04:52:02;0.47;;;0.30;;
70312;SDS011;57723;51.698;5.344;2023-04-12T04:54:28;2.45;;;0.40;;
70312;SDS011;57723;51.698;5.344;2023-04-12T04:57:08;2.25;;;0.30;;
70312;SDS011;57723;51.698;5.344;2023-04-12T04:59:35;0.50;;;0.30;;
70312;SDS011;57723;51.698;5.344;2023-04-12T05:02:01;1.50;;;0.30;;
70312;SDS011;57723;51.698;5.344;2023-04-12T05:04:26;0.80;;;0.40;;
70312;SDS011;57723;51.698;5.344;2023-04-12T05:06:51;3.10;;;0.73;;
70312;SDS011;57723;51.698;5.344;2023-04-12T05:09:20;2.72;;;2.53;;
70312;SDS011;57723;51.698;5.344;2023-04-12T05:11:45;11.25;;;10.45;;
70312;SDS011;57723;51.698;5.344;2023-04-12T05:14:10;24.90;;;23.20;;
70312;SDS011;57723;51.698;5.344;2023-04-12T05:16:35;44.73;;;42.03;;
70312;SDS011;57723;51.698;5.344;2023-04-12T05:19:01;57.27;;;54.07;;
70312;SDS011;57723;51.698;5.344;2023-04-12T05:21:26;68.53;;;64.53;;
70312;SDS011;57723;51.698;5.344;2023-04-12T05:23:52;81.38;;;76.80;;
70312;SDS011;57723;51.698;5.344;2023-04-12T05:26:17;79.43;;;74.60;;
70312;SDS011;57723;51.698;5.344;2023-04-12T05:28:43;78.53;;;73.93;;
70312;SDS011;57723;51.698;5.344;2023-04-12T05:31:09;6.82;;;2.85;;
70312;SDS011;57723;51.698;5.344;2023-04-12T05:33:34;6.60;;;0.87;;
70312;SDS011;57723;51.698;5.344;2023-04-12T05:36:00;4.15;;;0.50;;
70312;SDS011;57723;51.698;5.344;2023-04-12T05:38:26;5.27;;;0.60;;
70312;SDS011;57723;51.698;5.344;2023-04-12T05:40:51;4.03;;;0.40;;
70312;SDS011;57723;51.698;5.344;2023-04-12T05:43:16;3.77;;;0.67;;
70312;SDS011;57723;51.698;5.344;2023-04-12T05:45:42;0.98;;;0.40;;
70312;SDS011;57723;51.698;5.344;2023-04-12T05:48:07;2.77;;;0.30;;
70312;SDS011;57723;51.698;5.344;2023-04-12T05:50:33;2.23;;;0.30;;
70312;SDS011;57723;51.698;5.344;2023-04-12T05:52:59;1.70;;;0.40;;
70312;SDS011;57723;51.698;5.344;2023-04-12T05:55:25;2.63;;;0.30;;
70312;SDS011;57723;51.698;5.344;2023-04-12T05:57:50;1.33;;;0.40;;
70312;SDS011;57723;51.698;5.344;2023-04-12T06:00:16;2.45;;;0.50;;
70312;SDS011;57723;51.698;5.344;2023-04-12T06:02:45;2.20;;;0.85;;
70312;SDS011;57723;51.698;5.344;2023-04-12T06:05:13;0.40;;;0.22;;
70312;SDS011;57723;51.698;5.344;2023-04-12T06:07:39;0.38;;;0.25;;
70312;SDS011;57723;51.698;5.344;2023-04-12T06:10:06;5.75;;;0.68;;
70312;SDS011;57723;51.698;5.344;2023-04-12T06:12:31;0.83;;;0.40;;
70312;SDS011;57723;51.698;5.344;2023-04-12T06:14:57;0.93;;;0.50;;
70312;SDS011;57723;51.698;5.344;2023-04-12T06:17:22;1.03;;;0.50;;
70312;SDS011;57723;51.698;5.344;2023-04-12T06:19:47;2.20;;;0.60;;
70312;SDS011;57723;51.698;5.344;2023-04-12T06:22:12;1.10;;;0.40;;
70312;SDS011;57723;51.698;5.344;2023-04-12T06:24:39;3.92;;;0.45;;
70312;SDS011;57723;51.698;5.344;2023-04-12T06:27:04;3.33;;;0.53;;
70312;SDS011;57723;51.698;5.344;2023-04-12T06:29:29;1.13;;;0.40;;
70312;SDS011;57723;51.698;5.344;2023-04-12T06:31:55;0.40;;;0.40;;
70312;SDS011;57723;51.698;5.344;2023-04-12T06:34:20;0.80;;;0.30;;
70312;SDS011;57723;51.698;5.344;2023-04-12T06:36:45;1.97;;;0.50;;
70312;SDS011;57723;51.698;5.344;2023-04-12T06:39:11;1.05;;;0.50;;
70312;SDS011;57723;51.698;5.344;2023-04-12T06:41:37;1.03;;;0.40;;
70312;SDS011;57723;51.698;5.344;2023-04-12T06:44:02;0.67;;;0.40;;
70312;SDS011;57723;51.698;5.344;2023-04-12T06:46:27;0.77;;;0.47;;
70312;SDS011;57723;51.698;5.344;2023-04-12T06:48:53;1.75;;;0.60;;
70312;SDS011;57723;51.698;5.344;2023-04-12T06:51:19;1.33;;;0.50;;
70312;SDS011;57723;51.698;5.344;2023-04-12T06:53:44;1.00;;;0.50;;
70312;SDS011;57723;51.698;5.344;2023-04-12T06:56:10;1.10;;;0.40;;
70312;SDS011;57723;51.698;5.344;2023-04-12T06:58:35;1.33;;;0.37;;
70312;SDS011;57723;51.698;5.344;2023-04-12T07:01:04;1.50;;;0.50;;
70312;SDS011;57723;51.698;5.344;2023-04-12T07:03:30;0.52;;;0.40;;
70312;SDS011;57723;51.698;5.344;2023-04-12T07:05:57;1.00;;;0.50;;
70312;SDS011;57723;51.698;5.344;2023-04-12T07:08:23;1.23;;;0.47;;
70312;SDS011;57723;51.698;5.344;2023-04-12T07:10:52;0.35;;;0.30;;
70312;SDS011;57723;51.698;5.344;2023-04-12T07:13:18;1.52;;;0.80;;
70312;SDS011;57723;51.698;5.344;2023-04-12T07:15:43;1.65;;;0.40;;
70312;SDS011;57723;51.698;5.344;2023-04-12T07:18:08;0.40;;;0.40;;
70312;SDS011;57723;51.698;5.344;2023-04-12T07:20:34;0.47;;;0.30;;
70312;SDS011;57723;51.698;5.344;2023-04-12T07:22:59;0.93;;;0.50;;
70312;SDS011;57723;51.698;5.344;2023-04-12T07:25:24;1.23;;;0.40;;
70312;SDS011;57723;51.698;5.344;2023-04-12T07:27:49;1.07;;;0.40;;
70312;SDS011;57723;51.698;5.344;2023-04-12T07:30:15;1.13;;;0.60;;
70312;SDS011;57723;51.698;5.344;2023-04-12T07:32:40;0.60;;;0.40;;
70312;SDS011;57723;51.698;5.344;2023-04-12T07:35:06;1.03;;;0.50;;
70312;SDS011;57723;51.698;5.344;2023-04-12T07:37:31;0.63;;;0.40;;
70312;SDS011;57723;51.698;5.344;2023-04-12T07:39:56;1.00;;;0.40;;
70312;SDS011;57723;51.698;5.344;2023-04-12T07:42:21;1.03;;;0.50;;
70312;SDS011;57723;51.698;5.344;2023-04-12T07:44:47;1.23;;;0.40;;
70312;SDS011;57723;51.698;5.344;2023-04-12T07:47:12;0.70;;;0.40;;
70312;SDS011;57723;51.698;5.344;2023-04-12T07:49:37;0.60;;;0.47;;
70312;SDS011;57723;51.698;5.344;2023-04-12T07:52:02;3.03;;;0.50;;
70312;SDS011;57723;51.698;5.344;2023-04-12T07:54:28;1.07;;;0.40;;
70312;SDS011;57723;51.698;5.344;2023-04-12T07:56:59;1.07;;;0.50;;
70312;SDS011;57723;51.698;5.344;2023-04-12T07:59:25;0.50;;;0.30;;
70312;SDS011;57723;51.698;5.344;2023-04-12T08:01:50;1.63;;;0.40;;
70312;SDS011;57723;51.698;5.344;2023-04-12T08:04:15;0.57;;;0.40;;
70312;SDS011;57723;51.698;5.344;2023-04-12T08:06:41;0.40;;;0.40;;
70312;SDS011;57723;51.698;5.344;2023-04-12T08:09:07;0.47;;;0.45;;
70312;SDS011;57723;51.698;5.344;2023-04-12T08:11:32;0.30;;;0.30;;
70312;SDS011;57723;51.698;5.344;2023-04-12T08:13:59;1.58;;;0.52;;
70312;SDS011;57723;51.698;5.344;2023-04-12T08:16:25;0.45;;;0.40;;
70312;SDS011;57723;51.698;5.344;2023-04-12T08:18:51;0.73;;;0.43;;
70312;SDS011;57723;51.698;5.344;2023-04-12T08:21:16;0.37;;;0.37;;
70312;SDS011;57723;51.698;5.344;2023-04-12T08:23:42;0.70;;;0.50;;
70312;SDS011;57723;51.698;5.344;2023-04-12T08:26:07;0.30;;;0.30;;
70312;SDS011;57723;51.698;5.344;2023-04-12T08:28:33;2.13;;;0.70;;
70312;SDS011;57723;51.698;5.344;2023-04-12T08:30:58;1.03;;;0.57;;
70312;SDS011;57723;51.698;5.344;2023-04-12T08:33:23;3.03;;;0.60;;
70312;SDS011;57723;51.698;5.344;2023-04-12T08:35:48;0.50;;;0.40;;
70312;SDS011;57723;51.698;5.344;2023-04-12T08:38:14;0.93;;;0.45;;
70312;SDS011;57723;51.698;5.344;2023-04-12T08:40:40;0.60;;;0.40;;
70312;SDS011;57723;51.698;5.344;2023-04-12T08:43:06;6.23;;;0.60;;
70312;SDS011;57723;51.698;5.344;2023-04-12T08:45:32;1.00;;;0.40;;
70312;SDS011;57723;51.698;5.344;2023-04-12T08:47:59;0.68;;;0.40;;
70312;SDS011;57723;51.698;5.344;2023-04-12T08:50:27;1.23;;;0.40;;
70312;SDS011;57723;51.698;5.344;2023-04-12T08:52:53;0.40;;;0.40;;
70312;SDS011;57723;51.698;5.344;2023-04-12T08:55:18;0.40;;;0.40;;
70312;SDS011;57723;51.698;5.344;2023-04-12T08:57:43;0.47;;;0.40;;
70312;SDS011;57723;51.698;5.344;2023-04-12T09:00:09;0.50;;;0.40;;
70312;SDS011;57723;51.698;5.344;2023-04-12T09:02:37;0.55;;;0.45;;
70312;SDS011;57723;51.698;5.344;2023-04-12T09:05:02;0.53;;;0.30;;
70312;SDS011;57723;51.698;5.344;2023-04-12T09:07:27;0.50;;;0.30;;
70312;SDS011;57723;51.698;5.344;2023-04-12T09:09:57;0.63;;;0.32;;
70312;SDS011;57723;51.698;5.344;2023-04-12T09:12:22;0.65;;;0.40;;
70312;SDS011;57723;51.698;5.344;2023-04-12T09:17:36;1.08;;;0.47;;
70312;SDS011;57723;51.698;5.344;2023-04-12T09:20:07;1.23;;;0.40;;
70312;SDS011;57723;51.698;5.344;2023-04-12T09:22:47;0.55;;;0.40;;
70312;SDS011;57723;51.698;5.344;2023-04-12T09:25:13;0.90;;;0.40;;
70312;SDS011;57723;51.698;5.344;2023-04-12T09:27:45;0.90;;;0.32;;
70312;SDS011;57723;51.698;5.344;2023-04-12T09:30:11;1.35;;;0.40;;
70312;SDS011;57723;51.698;5.344;2023-04-12T09:32:39;0.68;;;0.40;;
70312;SDS011;57723;51.698;5.344;2023-04-12T09:35:05;0.50;;;0.40;;
70312;SDS011;57723;51.698;5.344;2023-04-12T09:37:30;0.60;;;0.40;;
70312;SDS011;57723;51.698;5.344;2023-04-12T09:39:59;1.40;;;0.50;;
70312;SDS011;57723;51.698;5.344;2023-04-12T09:42:26;0.40;;;0.40;;
70312;SDS011;57723;51.698;5.344;2023-04-12T09:44:52;0.60;;;0.30;;
70312;SDS011;57723;51.698;5.344;2023-04-12T09:47:17;0.85;;;0.40;;
70312;SDS011;57723;51.698;5.344;2023-04-12T09:49:43;0.70;;;0.40;;
70312;SDS011;57723;51.698;5.344;2023-04-12T09:52:10;0.63;;;0.30;;
70312;SDS011;57723;51.698;5.344;2023-04-12T09:54:43;1.08;;;0.50;;
70312;SDS011;57723;51.698;5.344;2023-04-12T09:57:08;0.60;;;0.60;;
70312;SDS011;57723;51.698;5.344;2023-04-12T09:59:35;0.40;;;0.30;;
70312;SDS011;57723;51.698;5.344;2023-04-12T10:02:01;0.52;;;0.38;;
70312;SDS011;57723;51.698;5.344;2023-04-12T10:04:28;0.60;;;0.45;;
70312;SDS011;57723;51.698;5.344;2023-04-12T10:06:57;0.50;;;0.40;;
70312;SDS011;57723;51.698;5.344;2023-04-12T10:09:23;0.57;;;0.40;;
70312;SDS011;57723;51.698;5.344;2023-04-12T10:11:48;0.40;;;0.40;;
70312;SDS011;57723;51.698;5.344;2023-04-12T10:14:15;0.50;;;0.30;;
70312;SDS011;57723;51.698;5.344;2023-04-12T10:16:41;0.45;;;0.40;;
70312;SDS011;57723;51.698;5.344;2023-04-12T10:19:08;0.65;;;0.50;;
70312;SDS011;57723;51.698;5.344;2023-04-12T10:21:34;0.32;;;0.32;;
70312;SDS011;57723;51.698;5.344;2023-04-12T10:23:59;0.50;;;0.40;;
70312;SDS011;57723;51.698;5.344;2023-04-12T10:26:25;0.80;;;0.33;;
70312;SDS011;57723;51.698;5.344;2023-04-12T10:31:35;0.90;;;0.52;;
70312;SDS011;57723;51.698;5.344;2023-04-12T10:34:01;0.95;;;0.40;;
70312;SDS011;57723;51.698;5.344;2023-04-12T10:39:11;1.45;;;0.45;;
70312;SDS011;57723;51.698;5.344;2023-04-12T10:41:38;0.50;;;0.47;;
70312;SDS011;57723;51.698;5.344;2023-04-12T10:44:24;1.05;;;0.50;;
70312;SDS011;57723;51.698;5.344;2023-04-12T10:46:52;0.50;;;0.40;;
70312;SDS011;57723;51.698;5.344;2023-04-12T10:49:17;0.73;;;0.50;;
70312;SDS011;57723;51.698;5.344;2023-04-12T10:54:29;1.00;;;0.50;;
70312;SDS011;57723;51.698;5.344;2023-04-12T10:56:55;0.47;;;0.40;;
70312;SDS011;57723;51.698;5.344;2023-04-12T10:59:21;0.63;;;0.63;;
70312;SDS011;57723;51.698;5.344;2023-04-12T11:02:20;0.60;;;0.40;;
70312;SDS011;57723;51.698;5.344;2023-04-12T11:05:02;1.50;;;0.40;;
70312;SDS011;57723;51.698;5.344;2023-04-12T11:07:36;0.95;;;0.45;;
70312;SDS011;57723;51.698;5.344;2023-04-12T11:10:02;1.63;;;0.50;;
70312;SDS011;57723;51.698;5.344;2023-04-12T11:12:28;1.20;;;0.50;;
70312;SDS011;57723;51.698;5.344;2023-04-12T11:14:54;0.30;;;0.30;;
70312;SDS011;57723;51.698;5.344;2023-04-12T11:17:23;0.38;;;0.38;;
70312;SDS011;57723;51.698;5.344;2023-04-12T11:19:53;0.40;;;0.40;;
70312;SDS011;57723;51.698;5.344;2023-04-12T11:22:20;0.40;;;0.40;;
70312;SDS011;57723;51.698;5.344;2023-04-12T11:24:46;0.40;;;0.40;;
70312;SDS011;57723;51.698;5.344;2023-04-12T11:27:12;0.43;;;0.40;;
70312;SDS011;57723;51.698;5.344;2023-04-12T11:29:37;0.90;;;0.50;;
70312;SDS011;57723;51.698;5.344;2023-04-12T11:32:03;2.10;;;0.50;;
70312;SDS011;57723;51.698;5.344;2023-04-12T11:34:32;0.80;;;0.45;;
70312;SDS011;57723;51.698;5.344;2023-04-12T11:36:58;0.93;;;0.60;;
70312;SDS011;57723;51.698;5.344;2023-04-12T11:39:24;1.95;;;0.70;;
70312;SDS011;57723;51.698;5.344;2023-04-12T11:41:51;0.40;;;0.40;;
70312;SDS011;57723;51.698;5.344;2023-04-12T11:44:16;0.55;;;0.40;;
70312;SDS011;57723;51.698;5.344;2023-04-12T11:46:43;0.57;;;0.40;;
70312;SDS011;57723;51.698;5.344;2023-04-12T11:49:08;0.32;;;0.32;;
70312;SDS011;57723;51.698;5.344;2023-04-12T11:51:34;0.63;;;0.40;;
70312;SDS011;57723;51.698;5.344;2023-04-12T11:54:00;0.52;;;0.40;;
70312;SDS011;57723;51.698;5.344;2023-04-12T11:56:25;0.63;;;0.40;;
70312;SDS011;57723;51.698;5.344;2023-04-12T11:58:52;0.50;;;0.47;;
70312;SDS011;57723;51.698;5.344;2023-04-12T12:01:18;0.40;;;0.40;;
70312;SDS011;57723;51.698;5.344;2023-04-12T12:03:43;0.97;;;0.60;;
70312;SDS011;57723;51.698;5.344;2023-04-12T12:06:09;0.52;;;0.35;;
70312;SDS011;57723;51.698;5.344;2023-04-12T12:08:35;3.25;;;0.52;;
70312;SDS011;57723;51.698;5.344;2023-04-12T12:11:01;0.85;;;0.40;;
70312;SDS011;57723;51.698;5.344;2023-04-12T12:13:26;0.50;;;0.50;;
70312;SDS011;57723;51.698;5.344;2023-04-12T12:15:51;1.10;;;0.50;;
70312;SDS011;57723;51.698;5.344;2023-04-12T12:18:17;0.43;;;0.40;;
70312;SDS011;57723;51.698;5.344;2023-04-12T12:20:48;1.43;;;0.60;;
70312;SDS011;57723;51.698;5.344;2023-04-12T12:23:30;1.98;;;0.40;;
70312;SDS011;57723;51.698;5.344;2023-04-12T12:25:56;1.58;;;0.50;;
70312;SDS011;57723;51.698;5.344;2023-04-12T12:28:24;1.17;;;0.50;;
70312;SDS011;57723;51.698;5.344;2023-04-12T12:30:53;1.02;;;0.50;;
70312;SDS011;57723;51.698;5.344;2023-04-12T12:33:19;2.20;;;0.50;;
70312;SDS011;57723;51.698;5.344;2023-04-12T12:35:44;0.40;;;0.40;;
70312;SDS011;57723;51.698;5.344;2023-04-12T12:38:10;1.23;;;0.70;;
70312;SDS011;57723;51.698;5.344;2023-04-12T12:40:35;0.75;;;0.45;;
70312;SDS011;57723;51.698;5.344;2023-04-12T12:43:01;0.83;;;0.40;;
70312;SDS011;57723;51.698;5.344;2023-04-12T12:45:27;0.40;;;0.40;;
70312;SDS011;57723;51.698;5.344;2023-04-12T12:47:53;0.70;;;0.40;;
70312;SDS011;57723;51.698;5.344;2023-04-12T12:50:21;0.77;;;0.40;;
70312;SDS011;57723;51.698;5.344;2023-04-12T12:52:46;1.20;;;0.77;;
70312;SDS011;57723;51.698;5.344;2023-04-12T12:55:12;0.80;;;0.50;;
70312;SDS011;57723;51.698;5.344;2023-04-12T12:57:38;0.87;;;0.60;;
70312;SDS011;57723;51.698;5.344;2023-04-12T13:00:03;0.80;;;0.40;;
70312;SDS011;57723;51.698;5.344;2023-04-12T13:02:30;0.82;;;0.43;;
70312;SDS011;57723;51.698;5.344;2023-04-12T13:04:55;0.75;;;0.50;;
70312;SDS011;57723;51.698;5.344;2023-04-12T13:07:25;0.40;;;0.40;;
70312;SDS011;57723;51.698;5.344;2023-04-12T13:09:51;0.98;;;0.47;;
70312;SDS011;57723;51.698;5.344;2023-04-12T13:12:16;0.47;;;0.30;;
70312;SDS011;57723;51.698;5.344;2023-04-12T13:14:42;2.17;;;0.80;;
70312;SDS011;57723;51.698;5.344;2023-04-12T13:17:07;0.90;;;0.73;;
70312;SDS011;57723;51.698;5.344;2023-04-12T13:19:32;0.80;;;0.43;;
70312;SDS011;57723;51.698;5.344;2023-04-12T13:21:57;0.77;;;0.30;;
70312;SDS011;57723;51.698;5.344;2023-04-12T13:24:23;0.40;;;0.40;;
70312;SDS011;57723;51.698;5.344;2023-04-12T13:26:48;0.40;;;0.40;;
70312;SDS011;57723;51.698;5.344;2023-04-12T13:29:13;0.50;;;0.20;;
70312;SDS011;57723;51.698;5.344;2023-04-12T13:31:38;0.30;;;0.30;;
70312;SDS011;57723;51.698;5.344;2023-04-12T13:34:04;1.02;;;0.30;;
70312;SDS011;57723;51.698;5.344;2023-04-12T13:36:29;1.13;;;0.50;;
70312;SDS011;57723;51.698;5.344;2023-04-12T13:38:54;0.93;;;0.80;;
70312;SDS011;57723;51.698;5.344;2023-04-12T13:41:20;0.43;;;0.30;;
70312;SDS011;57723;51.698;5.344;2023-04-12T13:43:45;0.50;;;0.40;;
70312;SDS011;57723;51.698;5.344;2023-04-12T13:46:13;0.37;;;0.30;;
70312;SDS011;57723;51.698;5.344;2023-04-12T13:48:38;1.08;;;0.40;;
70312;SDS011;57723;51.698;5.344;2023-04-12T13:51:03;1.97;;;0.40;;
70312;SDS011;57723;51.698;5.344;2023-04-12T13:53:29;0.93;;;0.43;;
70312;SDS011;57723;51.698;5.344;2023-04-12T13:55:55;1.58;;;0.50;;
70312;SDS011;57723;51.698;5.344;2023-04-12T13:58:20;0.80;;;0.40;;
70312;SDS011;57723;51.698;5.344;2023-04-12T14:00:45;0.30;;;0.30;;
70312;SDS011;57723;51.698;5.344;2023-04-12T14:03:11;1.23;;;0.43;;
70312;SDS011;57723;51.698;5.344;2023-04-12T14:05:36;1.90;;;0.80;;
70312;SDS011;57723;51.698;5.344;2023-04-12T14:08:01;1.37;;;0.30;;
70312;SDS011;57723;51.698;5.344;2023-04-12T14:10:26;0.77;;;0.40;;
70312;SDS011;57723;51.698;5.344;2023-04-12T14:12:52;0.90;;;0.70;;
70312;SDS011;57723;51.698;5.344;2023-04-12T14:15:17;0.60;;;0.50;;
70312;SDS011;57723;51.698;5.344;2023-04-12T14:17:43;1.42;;;0.50;;
70312;SDS011;57723;51.698;5.344;2023-04-12T14:20:08;1.27;;;0.50;;
70312;SDS011;57723;51.698;5.344;2023-04-12T14:22:36;0.85;;;0.50;;
70312;SDS011;57723;51.698;5.344;2023-04-12T14:25:02;0.50;;;0.40;;
70312;SDS011;57723;51.698;5.344;2023-04-12T14:27:27;1.10;;;0.40;;
70312;SDS011;57723;51.698;5.344;2023-04-12T14:29:52;1.10;;;0.40;;
70312;SDS011;57723;51.698;5.344;2023-04-12T14:32:18;0.67;;;0.40;;
70312;SDS011;57723;51.698;5.344;2023-04-12T14:34:43;1.00;;;0.40;;
70312;SDS011;57723;51.698;5.344;2023-04-12T14:37:08;0.60;;;0.40;;
70312;SDS011;57723;51.698;5.344;2023-04-12T14:39:34;0.63;;;0.60;;
70312;SDS011;57723;51.698;5.344;2023-04-12T14:41:59;1.95;;;0.50;;
70312;SDS011;57723;51.698;5.344;2023-04-12T14:44:25;1.10;;;0.50;;
70312;SDS011;57723;51.698;5.344;2023-04-12T14:46:51;0.77;;;0.40;;
70312;SDS011;57723;51.698;5.344;2023-04-12T14:49:19;0.80;;;0.30;;
70312;SDS011;57723;51.698;5.344;2023-04-12T14:51:45;0.88;;;0.50;;
70312;SDS011;57723;51.698;5.344;2023-04-12T14:54:11;0.40;;;0.40;;
70312;SDS011;57723;51.698;5.344;2023-04-12T14:56:36;0.73;;;0.40;;
70312;SDS011;57723;51.698;5.344;2023-04-12T14:59:01;2.40;;;0.50;;
70312;SDS011;57723;51.698;5.344;2023-04-12T15:01:27;0.30;;;0.20;;
70312;SDS011;57723;51.698;5.344;2023-04-12T15:03:55;0.40;;;0.40;;